KTPH/TPH METAR and TAF weather

Enter ICAO airport designator
Station Type Date Time Source
KTPH METAR 2020/01/18 23:56 UTC NOAA

KTPH 182356Z AUTO 00000KT 10SM CLR 07/M12 A3034 RMK AO2 SLP281 T00721122 10083 20028 55002


Station Type Date Time Source
KTPH Decoded METAR 2020/01/18 23:56 UTC NOAA

TONOPAH AIRPORT, NV, United States (KTPH) 38-02N 117-05W 1652M
Jan 18, 2020 - 06:56 PM EST / 2020.01.18 2356 UTC
Wind: Calm:0
Visibility: 10 mile(s):0
Sky conditions: clear
Temperature: 45.0 F (7.2 C)
Dew Point: 10.0 F (-12.2 C)
Relative Humidity: 23%
Pressure (altimeter): 30.34 in. Hg (1027 hPa)
Pressure tendency: 0.01 inches (0.2 hPa) lower than three hours ago
ob: KTPH 182356Z AUTO 00000KT 10SM CLR 07/M12 A3034 RMK AO2 SLP281 T00721122 10083 20028 55002
cycle: 0

Station Type Date Time Source
KTPH TAF 2020/01/18 18:36 UTC NOAA

TAF KTPH 181734Z 1818/1918 01006KT P6SM SCT150 BKN250
FM181900 VRB04KT P6SM SCT150 BKN250
FM190300 36008KT P6SM BKN200

Example: see airport list